Time;durP1;ratioP1;P1;durP2;ratioP2;P2;SDS_P1;SDS_P2;PMS_P1;PMS_P2;Temp;Humidity;BMP_temperature;BMP_pressure;BME280_temperature;BME280_humidity;BME280_pressure;Samples;Min_cycle;Max_cycle;Signal;HPM_P1;HPM_P2
2022/02/03 00:00:03;;;;;;;15.47;4.87;;;;;;;1.96;92.68;101980.16;5072641;28;20693;-74
2022/02/03 00:02:41;;;;;;;18.90;5.37;;;;;;;1.94;92.07;101970.72;5072719;28;20306;-73
2022/02/03 00:05:15;;;;;;;26.37;4.73;;;;;;;1.93;92.03;101972.34;5072561;28;20227;-73
2022/02/03 00:26:18;;;;;;;17.87;3.87;;;;;;;2.01;92.23;101976.31;5072252;28;20660;-73
2022/02/03 00:28:47;;;;;;;16.67;4.13;;;;;;;1.97;91.79;101976.00;5071913;28;20189;-73
2022/02/03 00:31:34;;;;;;;15.27;3.50;;;;;;;1.90;92.27;101971.28;5071951;28;20209;-73
2022/02/03 00:34:05;;;;;;;15.87;4.17;;;;;;;1.91;92.08;101971.38;5071944;28;20185;-73
2022/02/03 00:37:27;;;;;;;15.60;3.23;;;;;;;1.95;92.46;101975.00;5072083;28;20242;-73
2022/02/03 00:50:25;;;;;;;16.43;3.73;;;;;;;2.03;92.59;101949.53;5071627;28;20248;-73
2022/02/03 00:52:52;;;;;;;15.53;3.93;;;;;;;2.04;92.41;101942.81;5070151;28;20640;-73
2022/02/03 00:55:17;;;;;;;14.90;4.10;;;;;;;2.05;91.77;101935.38;5071796;28;20643;-73
2022/02/03 00:57:49;;;;;;;16.73;3.60;;;;;;;2.08;92.42;101935.59;5071732;28;20192;-74
2022/02/03 01:00:16;;;;;;;17.93;3.83;;;;;;;2.04;92.52;101930.19;5071306;28;20200;-73
2022/02/03 01:02:46;;;;;;;19.10;3.93;;;;;;;2.05;92.29;101929.44;5070237;28;20661;-73
2022/02/03 01:05:13;;;;;;;15.17;3.77;;;;;;;2.01;92.04;101930.88;5070177;28;20281;-73
2022/02/03 01:07:44;;;;;;;15.63;3.50;;;;;;;2.01;92.45;101924.94;5071585;28;20188;-73
2022/02/03 01:10:27;;;;;;;16.07;4.27;;;;;;;1.98;92.19;101919.69;5071551;28;20200;-73
2022/02/03 01:35:11;;;;;;;18.43;3.33;;;;;;;2.01;92.17;101918.25;5070965;28;20842;-73
2022/02/03 01:43:25;;;;;;;16.30;3.20;;;;;;;1.99;92.15;101897.06;5069583;28;20555;-73
2022/02/03 01:45:58;;;;;;;19.90;3.43;;;;;;;2.04;92.44;101893.22;5069201;28;20753;-73
2022/02/03 01:53:38;;;;;;;18.57;3.50;;;;;;;2.09;92.75;101886.84;5070222;28;20544;-73
2022/02/03 01:56:05;;;;;;;19.03;3.57;;;;;;;2.08;92.47;101884.19;5070406;28;20256;-73
2022/02/03 01:58:40;;;;;;;17.87;3.70;;;;;;;2.07;92.51;101874.88;5070336;28;20205;-73
2022/02/03 02:01:06;;;;;;;12.60;3.50;;;;;;;2.07;92.04;101872.34;5068946;28;20200;-73
2022/02/03 02:04:06;;;;;;;19.30;3.67;;;;;;;2.02;92.90;101871.16;5070287;28;20242;-73
2022/02/03 02:06:52;;;;;;;14.37;3.43;;;;;;;2.02;92.97;101863.56;5046372;28;20228;-73
2022/02/03 02:09:17;;;;;;;12.73;3.50;;;;;;;2.03;91.85;101851.06;5070181;28;20205;-73
2022/02/03 02:12:05;;;;;;;12.30;3.33;;;;;;;2.03;92.83;101848.53;5070258;28;20654;-73
2022/02/03 02:15:35;;;;;;;15.60;3.20;;;;;;;2.00;92.76;101843.25;5068790;28;20177;-73
2022/02/03 02:43:31;;;;;;;10.60;3.70;;;;;;;2.36;93.20;101805.34;5070033;28;20181;-73
2022/02/03 02:46:13;;;;;;;18.50;3.63;;;;;;;2.37;92.48;101812.16;5069773;28;20215;-73
2022/02/03 02:49:16;;;;;;;13.07;3.97;;;;;;;2.41;93.27;101810.69;5069605;28;20177;-72
2022/02/03 02:52:07;;;;;;;13.13;3.43;;;;;;;2.39;92.48;101809.75;5052333;28;20205;-73
2022/02/03 02:55:01;;;;;;;18.77;3.60;;;;;;;2.41;93.17;101798.06;5069751;28;20705;-73
2022/02/03 03:03:12;;;;;;;12.80;3.73;;;;;;;2.37;93.56;101801.16;5069591;28;20192;-73
2022/02/03 03:35:55;;;;;;;12.47;3.03;;;;;;;2.64;92.62;101750.81;5073612;28;20220;-73
2022/02/03 03:38:27;;;;;;;15.00;3.20;;;;;;;2.65;92.53;101755.06;5073311;28;20189;-73
2022/02/03 03:40:56;;;;;;;12.60;2.97;;;;;;;2.67;92.75;101750.97;5073252;28;20343;-73
2022/02/03 03:43:36;;;;;;;12.37;2.80;;;;;;;2.74;93.01;101745.56;5073152;28;20192;-73
2022/02/03 03:46:25;;;;;;;15.00;3.60;;;;;;;2.78;92.40;101741.56;5071524;28;20592;-73
2022/02/03 03:49:24;;;;;;;16.67;4.47;;;;;;;2.79;93.01;101744.19;5072754;28;20631;-73
2022/02/03 03:51:54;;;;;;;11.43;3.97;;;;;;;2.83;92.41;101730.97;5071053;28;20185;-73
2022/02/03 03:57:17;;;;;;;13.27;3.37;;;;;;;2.88;92.42;101729.63;5072845;28;20172;-73
2022/02/03 04:34:03;;;;;;;12.43;3.57;;;;;;;3.18;93.14;101716.34;5072159;28;20274;-73
2022/02/03 04:51:20;;;;;;;13.73;3.83;;;;;;;3.32;93.01;101691.94;5071957;28;20205;-73
2022/02/03 05:00:26;;;;;;;15.40;4.40;;;;;;;3.35;94.13;101682.84;5071488;28;20705;-73
2022/02/03 05:03:19;;;;;;;16.73;4.30;;;;;;;3.40;93.94;101680.63;5071449;28;20264;-73
2022/02/03 05:06:35;;;;;;;19.43;4.20;;;;;;;3.42;94.65;101674.88;5070270;28;20749;-73
2022/02/03 05:21:31;;;;;;;17.87;4.63;;;;;;;3.57;95.16;101658.06;5071194;28;20265;-73
2022/02/03 05:27:10;;;;;;;22.10;6.20;;;;;;;3.69;95.54;101648.66;5069724;28;20217;-73
2022/02/03 05:34:16;;;;;;;14.80;5.37;;;;;;;3.76;96.19;101644.81;5071125;28;20189;-73
2022/02/03 05:45:00;;;;;;;26.30;7.33;;;;;;;3.89;96.75;101639.69;5070859;28;20187;-72
2022/02/03 05:48:23;;;;;;;21.23;7.27;;;;;;;3.92;96.70;101629.75;5070165;28;20215;-72
2022/02/03 05:50:42;;;;;;;24.53;7.60;;;;;;;3.92;97.14;101630.63;5065979;28;20271;-72
2022/02/03 06:04:09;;;;;;;30.77;10.13;;;;;;;4.05;98.61;101617.03;5070756;28;20682;-73
2022/02/03 06:06:52;;;;;;;33.27;15.57;;;;;;;4.05;98.38;101606.88;5070354;28;20293;-73
2022/02/03 06:12:23;;;;;;;33.80;18.10;;;;;;;4.30;98.87;101603.28;5070600;28;20181;-70
2022/02/03 06:22:45;;;;;;;28.33;11.27;;;;;;;4.31;98.38;101591.47;5068759;28;20185;-73
2022/02/03 06:27:44;;;;;;;26.47;11.37;;;;;;;4.32;98.87;101586.50;5069866;28;20657;-72
2022/02/03 06:30:12;;;;;;;28.27;11.40;;;;;;;4.34;98.73;101592.53;5068461;28;20453;-73
2022/02/03 06:32:41;;;;;;;22.73;10.70;;;;;;;4.32;99.18;101581.44;5070005;28;20291;-73
2022/02/03 06:35:08;;;;;;;27.57;11.50;;;;;;;4.38;99.04;101588.50;5070042;28;20541;-74
2022/02/03 06:37:35;;;;;;;27.50;11.23;;;;;;;4.35;99.34;101581.59;5069906;28;20276;-74
2022/02/03 06:40:02;;;;;;;29.33;10.77;;;;;;;4.38;98.65;101580.91;5069616;28;20204;-73
2022/02/03 06:42:27;;;;;;;22.60;10.50;;;;;;;4.39;99.06;101582.66;5068593;28;20185;-73
2022/02/03 06:44:57;;;;;;;23.30;9.83;;;;;;;4.41;98.69;101581.06;5069802;28;20189;-73
2022/02/03 06:47:32;;;;;;;18.50;9.93;;;;;;;4.42;98.66;101580.28;5069771;28;20654;-73
2022/02/03 06:55:46;;;;;;;23.40;11.73;;;;;;;4.50;99.07;101568.88;5069727;28;20256;-73
2022/02/03 06:58:20;;;;;;;18.93;11.07;;;;;;;4.50;98.79;101567.22;5069597;28;20185;-73
2022/02/03 07:01:07;;;;;;;27.13;11.60;;;;;;;4.52;99.49;101559.72;5069746;28;20228;-73
2022/02/03 07:03:37;;;;;;;23.60;11.23;;;;;;;4.54;99.65;101553.94;5068450;28;20205;-74
2022/02/03 07:06:02;;;;;;;22.10;12.10;;;;;;;4.56;99.48;101548.97;5068346;28;20224;-73
2022/02/03 07:08:30;;;;;;;28.27;11.90;;;;;;;4.59;99.49;101550.00;5069443;28;20180;-73
2022/02/03 07:10:56;;;;;;;25.47;11.40;;;;;;;4.61;99.91;101545.84;5068274;28;20213;-73
2022/02/03 07:13:22;;;;;;;22.67;11.80;;;;;;;4.62;99.67;101546.75;5069697;28;20545;-73
2022/02/03 07:15:48;;;;;;;23.97;11.97;;;;;;;4.64;99.64;101546.03;5069826;28;20188;-73
2022/02/03 07:18:13;;;;;;;23.73;12.63;;;;;;;4.67;99.79;101546.22;5069596;28;20192;-73
2022/02/03 07:20:39;;;;;;;22.00;12.10;;;;;;;4.69;100.00;101547.16;5069846;28;20209;-73
2022/02/03 07:23:06;;;;;;;22.83;13.10;;;;;;;4.68;99.83;101540.34;5069514;28;20211;-73
2022/02/03 07:25:32;;;;;;;18.43;11.67;;;;;;;4.69;99.58;101543.75;5069313;28;20619;-73
2022/02/03 07:28:01;;;;;;;19.70;11.73;;;;;;;4.71;99.99;101545.59;5067904;28;20251;-73
2022/02/03 07:30:26;;;;;;;23.57;11.40;;;;;;;4.74;99.48;101527.97;5069273;28;20678;-73
2022/02/03 07:32:55;;;;;;;18.23;11.03;;;;;;;4.76;99.69;101540.75;5069410;28;20284;-73
2022/02/03 07:35:21;;;;;;;18.57;10.93;;;;;;;4.77;99.74;101532.34;5069346;28;20674;-73
2022/02/03 07:37:48;;;;;;;18.50;11.33;;;;;;;4.78;99.77;101529.88;5051236;28;20187;-73
2022/02/03 07:40:14;;;;;;;17.63;11.33;;;;;;;4.82;99.70;101536.88;5069142;28;20209;-73
2022/02/03 07:42:41;;;;;;;19.53;11.93;;;;;;;4.82;99.63;101528.38;5067838;28;20242;-73
2022/02/03 07:45:07;;;;;;;20.80;12.00;;;;;;;4.85;100.00;101524.38;5067894;28;20209;-73
2022/02/03 07:47:33;;;;;;;19.57;11.73;;;;;;;4.87;99.89;101521.88;5069115;28;20209;-73
2022/02/03 07:49:59;;;;;;;21.23;12.33;;;;;;;4.88;100.00;101521.97;5068937;28;20205;-73
2022/02/03 07:52:24;;;;;;;20.03;12.20;;;;;;;4.89;100.00;101518.66;5067344;28;20193;-73
2022/02/03 07:54:49;;;;;;;20.73;12.20;;;;;;;4.92;99.84;101520.50;5067734;28;20906;-73
2022/02/03 07:57:15;;;;;;;16.80;11.90;;;;;;;4.95;99.99;101513.91;5069271;28;20554;-73
2022/02/03 07:59:40;;;;;;;17.73;11.80;;;;;;;4.96;100.00;101508.03;5069005;28;20299;-73
2022/02/03 08:02:07;;;;;;;17.23;11.83;;;;;;;5.01;100.00;101513.34;5068075;28;20185;-74
2022/02/03 08:04:35;;;;;;;18.03;10.97;;;;;;;5.02;99.88;101515.94;5069012;28;20185;-74
2022/02/03 08:07:01;;;;;;;18.53;11.30;;;;;;;5.06;99.62;101507.69;5068985;28;20412;-73
2022/02/03 08:09:37;;;;;;;17.67;11.33;;;;;;;5.09;100.00;101501.91;5068791;28;20197;-73
2022/02/03 08:12:08;;;;;;;16.67;11.07;;;;;;;5.12;100.00;101512.22;5070667;28;20356;-73
2022/02/03 08:14:41;;;;;;;18.47;12.00;;;;;;;5.14;100.00;101506.44;5072616;28;20183;-73
2022/02/03 08:17:11;;;;;;;16.67;11.23;;;;;;;5.19;100.00;101506.66;5071153;28;20193;-73
2022/02/03 08:19:48;;;;;;;18.23;11.43;;;;;;;5.21;100.00;101508.47;5072360;28;20270;-74
2022/02/03 08:22:25;;;;;;;18.00;11.17;;;;;;;5.25;100.00;101501.91;5072477;28;20177;-73
2022/02/03 08:24:55;;;;;;;18.17;11.83;;;;;;;5.28;100.00;101502.94;5054510;28;20196;-73
2022/02/03 08:32:27;;;;;;;19.27;11.43;;;;;;;5.39;100.00;101499.25;5072545;28;20539;-73
2022/02/03 08:37:18;;;;;;;18.77;12.07;;;;;;;5.46;100.00;101496.25;5072276;28;20181;-73
2022/02/03 08:39:55;;;;;;;24.13;14.00;;;;;;;5.48;100.00;101496.31;5072032;28;20212;-73
2022/02/03 08:42:21;;;;;;;25.53;13.00;;;;;;;5.51;100.00;101494.81;5070926;28;20205;-73
2022/02/03 08:44:47;;;;;;;23.23;12.83;;;;;;;5.54;100.00;101486.47;5071037;28;20203;-73
2022/02/03 08:47:12;;;;;;;26.17;13.80;;;;;;;5.57;100.00;101486.63;5072210;28;20188;-74
2022/02/03 08:49:42;;;;;;;26.00;13.33;;;;;;;5.60;100.00;101484.22;5070524;28;20209;-73
2022/02/03 08:52:15;;;;;;;21.90;13.20;;;;;;;5.63;100.00;101484.38;5070499;28;20598;-73
2022/02/03 08:54:48;;;;;;;26.77;14.77;;;;;;;5.67;100.00;101482.06;5070968;28;20180;-73
2022/02/03 08:57:21;;;;;;;25.07;14.53;;;;;;;5.69;100.00;101477.94;5072265;28;20239;-73
2022/02/03 09:00:13;;;;;;;27.90;14.70;;;;;;;5.73;100.00;101476.41;5071996;28;20216;-73
2022/02/03 09:33:51;;;;;;;38.93;18.93;;;;;;;6.41;100.00;101438.19;5069812;28;20181;-74
2022/02/03 09:35:48;;;;;;;41.73;18.73;;;;;;;6.46;100.00;101441.84;5071032;28;20193;-73
2022/02/03 09:38:26;;;;;;;40.83;18.80;;;;;;;6.55;100.00;101436.28;5069375;28;20192;-73
2022/02/03 09:41:13;;;;;;;37.27;17.77;;;;;;;6.61;100.00;101439.97;5071023;28;20433;-73
2022/02/03 09:50:13;;;;;;;37.60;17.77;;;;;;;6.63;100.00;101434.97;5071378;28;20686;-73
2022/02/03 09:54:50;;;;;;;35.23;17.13;;;;;;;6.84;100.00;101446.06;5070689;28;20196;-73
2022/02/03 10:00:25;;;;;;;34.30;17.07;;;;;;;7.07;100.00;101445.38;5069012;28;20211;-72
2022/02/03 10:03:07;;;;;;;34.07;15.83;;;;;;;7.16;100.00;101435.59;5069284;28;20193;-73
2022/02/03 10:07:59;;;;;;;34.03;16.57;;;;;;;7.20;100.00;101440.00;5070180;28;20191;-73
2022/02/03 10:10:28;;;;;;;34.23;17.13;;;;;;;7.30;100.00;101448.09;5069112;28;20297;-73
2022/02/03 10:12:54;;;;;;;32.70;16.33;;;;;;;7.45;100.00;101438.53;5070340;28;20215;-74
2022/02/03 10:15:21;;;;;;;34.67;16.57;;;;;;;7.54;100.00;101427.84;5070281;28;20181;-73
2022/02/03 10:17:48;;;;;;;30.83;15.37;;;;;;;7.59;100.00;101434.00;5070244;28;20192;-74
2022/02/03 10:20:18;;;;;;;31.47;14.90;;;;;;;7.59;100.00;101434.88;5070307;28;20585;-73
2022/02/03 10:23:03;;;;;;;29.37;14.83;;;;;;;7.67;100.00;101427.53;5068851;28;20252;-73
2022/02/03 10:25:34;;;;;;;32.27;16.00;;;;;;;7.75;100.00;101423.63;5068789;28;20236;-72
2022/02/03 10:28:11;;;;;;;31.30;15.10;;;;;;;7.76;100.00;101422.81;5070027;28;20188;-73
2022/02/03 10:30:47;;;;;;;28.60;14.67;;;;;;;7.83;100.00;101418.00;5069910;28;20231;-73
2022/02/03 10:33:13;;;;;;;31.73;16.33;;;;;;;7.87;100.00;101419.88;5069674;28;20203;-73
2022/02/03 10:35:46;;;;;;;30.20;15.63;;;;;;;7.91;100.00;101409.00;5069858;28;20208;-73
2022/02/03 10:52:38;;;;;;;55.53;25.77;;;;;;;8.11;100.00;101392.75;5069662;28;20232;-73
2022/02/03 10:58:22;;;;;;;58.87;27.10;;;;;;;8.12;100.00;101391.97;5069941;28;20173;-73
2022/02/03 11:01:16;;;;;;;62.97;26.80;;;;;;;8.13;100.00;101390.28;5069582;28;20247;-73
2022/02/03 11:06:27;;;;;;;62.30;29.07;;;;;;;8.13;100.00;101385.16;5069602;28;20213;-73
2022/02/03 11:11:37;;;;;;;66.37;30.33;;;;;;;8.12;100.00;101375.78;5068226;28;20187;-73
2022/02/03 11:14:03;;;;;;;71.50;30.10;;;;;;;8.12;100.00;101384.31;5068350;28;20265;-73
2022/02/03 11:16:32;;;;;;;71.17;32.17;;;;;;;8.12;100.00;101376.66;5068097;28;20191;-73
2022/02/03 11:19:05;;;;;;;67.47;32.23;;;;;;;8.16;100.00;101383.59;5067896;28;20212;-73
2022/02/03 11:21:33;;;;;;;72.13;32.53;;;;;;;8.17;100.00;101364.06;5068070;28;20199;-73
2022/02/03 11:24:04;;;;;;;70.20;31.63;;;;;;;8.19;100.00;101375.19;5069503;28;20184;-73
2022/02/03 11:26:42;;;;;;;70.40;33.50;;;;;;;8.21;100.00;101368.50;5069316;28;20213;-73
2022/02/03 11:32:13;;;;;;;67.43;30.97;;;;;;;8.25;100.00;101371.22;5069372;28;20209;-73
2022/02/03 11:37:49;;;;;;;62.43;29.10;;;;;;;8.28;100.00;101368.78;5067937;28;20192;-73
2022/02/03 11:46:16;;;;;;;67.93;31.70;;;;;;;8.30;100.00;101358.66;5070001;28;20197;-74
2022/02/03 11:54:52;;;;;;;56.33;27.37;;;;;;;8.31;100.00;101345.06;5072658;28;20195;-73
2022/02/03 12:21:42;;;;;;;41.30;21.60;;;;;;;8.20;99.52;101310.63;5072446;28;20212;-72
2022/02/03 12:27:10;;;;;;;42.10;22.83;;;;;;;8.16;99.28;101313.88;5072299;28;20605;-73
2022/02/03 12:45:23;;;;;;;39.93;21.10;;;;;;;8.09;98.93;101307.69;5072074;28;20287;-72
2022/02/03 12:47:52;;;;;;;36.77;20.50;;;;;;;8.08;99.07;101295.75;5070588;28;20688;-73
2022/02/03 12:50:28;;;;;;;40.97;19.50;;;;;;;8.05;99.13;101292.19;5071794;28;20197;-72
2022/02/03 12:52:54;;;;;;;37.50;20.20;;;;;;;8.03;98.80;101297.28;5071469;28;20264;-72
2022/02/03 12:55:26;;;;;;;38.73;19.43;;;;;;;8.05;98.68;101294.75;5071869;28;20218;-72
2022/02/03 12:57:51;;;;;;;34.13;19.03;;;;;;;8.01;99.00;101293.78;5070268;28;20724;-72
2022/02/03 13:00:26;;;;;;;36.17;20.60;;;;;;;8.03;98.63;101284.53;5071505;28;20205;-72
2022/02/03 13:02:57;;;;;;;37.10;18.90;;;;;;;8.00;99.64;101279.28;5070465;28;20291;-72
2022/02/03 13:05:25;;;;;;;37.37;20.27;;;;;;;8.00;99.21;101284.41;5071471;28;20208;-72
2022/02/03 13:07:54;;;;;;;35.97;19.83;;;;;;;7.98;99.58;101268.19;5071485;28;20242;-72
2022/02/03 13:10:22;;;;;;;37.90;20.00;;;;;;;7.99;99.28;101269.91;5070108;28;20201;-73
2022/02/03 13:12:57;;;;;;;37.10;19.37;;;;;;;7.96;99.70;101271.47;5071455;28;20235;-73
2022/02/03 13:15:42;;;;;;;37.10;19.33;;;;;;;7.95;99.51;101279.94;5071483;28;20181;-74
2022/02/03 13:18:17;;;;;;;35.90;18.40;;;;;;;7.93;100.00;101273.91;5070043;28;20523;-72
2022/02/03 13:21:08;;;;;;;36.57;19.63;;;;;;;7.93;100.00;101262.03;5071395;28;20220;-72
2022/02/03 13:23:31;;;;;;;40.90;19.43;;;;;;;7.90;100.00;101259.38;5069675;28;20291;-73
2022/02/03 13:26:07;;;;;;;39.77;21.70;;;;;;;7.91;100.00;101260.22;5070124;28;20315;-72
2022/02/03 13:28:48;;;;;;;34.20;19.80;;;;;;;7.89;100.00;101260.19;5071074;28;20545;-72
2022/02/03 13:33:56;;;;;;;26.70;15.30;;;;;;;7.84;99.91;101255.75;5070975;28;20602;-72
2022/02/03 13:36:29;;;;;;;26.97;14.77;;;;;;;7.85;99.36;101258.34;5071118;28;20192;-73
2022/02/03 13:39:02;;;;;;;29.30;15.80;;;;;;;7.83;99.02;101256.56;5053237;28;20541;-72
2022/02/03 13:41:30;;;;;;;27.00;15.20;;;;;;;7.76;98.14;101254.59;5069713;28;20710;-74
2022/02/03 13:43:55;;;;;;;23.63;14.80;;;;;;;7.78;98.34;101252.97;5070816;28;20189;-74
2022/02/03 13:46:29;;;;;;;23.27;14.27;;;;;;;7.78;97.82;101255.53;5070742;28;20619;-74
2022/02/03 13:48:55;;;;;;;28.00;15.77;;;;;;;7.76;97.67;101244.38;5070664;28;20181;-74
2022/02/03 13:51:25;;;;;;;27.43;15.33;;;;;;;7.77;97.59;101248.66;5070625;28;20274;-74
2022/02/03 14:18:47;;;;;;;22.57;13.80;;;;;;;7.72;96.10;101214.50;5070000;28;20181;-74
2022/02/03 14:21:22;;;;;;;24.83;13.37;;;;;;;7.68;96.15;101210.97;5070106;28;20998;-75
2022/02/03 14:26:53;;;;;;;21.83;13.90;;;;;;;7.68;95.93;101210.09;5068586;28;20187;-74
2022/02/03 14:29:21;;;;;;;21.43;13.07;;;;;;;7.66;95.53;101199.00;5069730;28;20750;-74
2022/02/03 14:31:56;;;;;;;18.33;11.77;;;;;;;7.65;94.70;101198.13;5070115;28;20185;-74
2022/02/03 14:34:27;;;;;;;21.27;12.63;;;;;;;7.66;94.22;101196.44;5070274;28;20192;-74
2022/02/03 14:37:01;;;;;;;20.07;11.97;;;;;;;7.65;94.78;101197.25;5070421;28;20403;-74
2022/02/03 14:39:44;;;;;;;18.27;12.37;;;;;;;7.62;94.76;101198.03;5069814;28;20215;-74
2022/02/03 14:42:10;;;;;;;21.47;11.47;;;;;;;7.61;94.68;101191.16;5051897;28;20281;-74
2022/02/03 14:44:36;;;;;;;20.10;11.33;;;;;;;7.62;94.71;101192.03;5069862;28;20237;-75
2022/02/03 14:47:02;;;;;;;17.10;10.80;;;;;;;7.60;94.14;101193.69;5068523;28;20589;-74
2022/02/03 14:49:27;;;;;;;18.10;11.50;;;;;;;7.59;93.89;101190.25;5069597;28;20201;-74
2022/02/03 14:52:08;;;;;;;16.43;10.93;;;;;;;7.58;94.32;101183.44;5069434;28;20660;-74
2022/02/03 14:59:43;;;;;;;17.23;10.97;;;;;;;7.57;94.90;101176.59;5068086;28;20201;-74
2022/02/03 15:02:08;;;;;;;16.33;11.23;;;;;;;7.57;95.32;101171.50;5069643;28;20719;-75
2022/02/03 15:04:41;;;;;;;15.87;10.93;;;;;;;7.55;94.66;101172.28;5069743;28;20862;-75
2022/02/03 15:07:09;;;;;;;17.13;10.40;;;;;;;7.55;94.14;101173.13;5069557;28;20312;-75
2022/02/03 15:09:50;;;;;;;19.27;10.87;;;;;;;7.51;94.48;101166.16;5069373;28;20205;-74
2022/02/03 15:14:47;;;;;;;16.07;11.20;;;;;;;7.52;94.65;101157.75;5069426;28;20212;-75
2022/02/03 15:17:13;;;;;;;15.60;10.83;;;;;;;7.51;94.81;101160.22;5068239;28;20261;-75
2022/02/03 15:19:38;;;;;;;15.80;10.30;;;;;;;7.51;93.45;101142.38;5069175;28;20212;-74
2022/02/03 15:22:03;;;;;;;13.63;10.03;;;;;;;7.50;94.02;101138.97;5072903;28;20177;-74
2022/02/03 15:24:29;;;;;;;14.90;10.80;;;;;;;7.53;93.85;101136.53;5073537;28;20199;-74
2022/02/03 15:26:55;;;;;;;14.67;10.93;;;;;;;7.52;93.22;101137.34;5073739;28;20220;-74
2022/02/03 15:29:21;;;;;;;14.80;10.57;;;;;;;7.52;94.38;101142.44;5073512;28;20204;-74
2022/02/03 15:31:46;;;;;;;13.63;9.80;;;;;;;7.51;93.78;101145.78;5073741;28;20661;-74
2022/02/03 15:34:17;;;;;;;14.97;10.20;;;;;;;7.50;93.30;101138.97;5072489;28;20704;-74
2022/02/03 15:36:48;;;;;;;13.10;10.07;;;;;;;7.50;93.51;101143.19;5073595;28;20639;-74
2022/02/03 15:39:19;;;;;;;16.37;10.37;;;;;;;7.49;93.36;101136.34;5073312;28;20185;-74
2022/02/03 15:41:45;;;;;;;15.70;10.20;;;;;;;7.49;94.30;101138.91;5073413;28;20204;-74
2022/02/03 15:44:10;;;;;;;16.47;11.23;;;;;;;7.46;93.89;101147.31;5072044;28;20223;-75
2022/02/03 15:46:42;;;;;;;18.73;11.07;;;;;;;7.45;94.51;101139.59;5071953;28;20212;-74
2022/02/03 15:49:29;;;;;;;18.90;11.33;;;;;;;7.45;93.64;101139.59;5073073;28;20191;-74
2022/02/03 16:01:16;;;;;;;14.53;10.20;;;;;;;7.41;93.48;101135.22;5013915;28;20210;-74
2022/02/03 16:03:49;;;;;;;15.23;11.17;;;;;;;7.42;94.07;101135.25;5030225;28;20851;-74
2022/02/03 16:17:12;;;;;;;14.87;10.60;;;;;;;7.38;94.45;101130.00;5072630;28;20227;-74
2022/02/03 16:19:49;;;;;;;15.03;10.20;;;;;;;7.40;94.00;101130.94;5072372;28;20220;-74
2022/02/03 16:22:36;;;;;;;14.73;10.50;;;;;;;7.41;93.15;101141.19;5071317;28;20188;-74
2022/02/03 16:54:50;;;;;;;20.33;13.17;;;;;;;7.20;95.90;101111.50;5072036;28;20604;-74
2022/02/03 16:57:20;;;;;;;18.93;13.30;;;;;;;7.18;96.24;101095.31;5071933;28;20176;-74
2022/02/03 16:59:55;;;;;;;18.57;12.30;;;;;;;7.17;96.49;101103.75;5070452;28;20204;-75
2022/02/03 17:02:22;;;;;;;18.63;12.97;;;;;;;7.16;95.94;101104.56;5070741;28;20185;-74
2022/02/03 17:04:47;;;;;;;18.73;12.30;;;;;;;7.12;96.65;101106.13;5072080;28;20193;-74
2022/02/03 17:07:12;;;;;;;20.20;13.33;;;;;;;7.11;96.77;101112.06;5070531;28;20223;-74
2022/02/03 17:09:39;;;;;;;19.93;13.77;;;;;;;7.10;97.22;101105.19;5071240;28;20205;-74
2022/02/03 17:12:06;;;;;;;21.70;13.57;;;;;;;7.10;96.74;101110.28;5071540;28;20637;-74
2022/02/03 17:14:32;;;;;;;18.63;13.20;;;;;;;7.09;96.79;101110.25;5071584;28;20280;-74
2022/02/03 17:16:58;;;;;;;17.83;13.03;;;;;;;7.07;96.47;101109.31;5071467;28;20398;-75
2022/02/03 17:19:23;;;;;;;18.00;12.73;;;;;;;7.07;95.96;101106.78;5070113;28;20231;-74
2022/02/03 17:21:48;;;;;;;19.07;12.40;;;;;;;7.06;96.52;101112.69;5071360;28;20545;-74
2022/02/03 17:24:14;;;;;;;18.27;13.27;;;;;;;7.08;96.11;101105.94;5071348;28;20659;-74
2022/02/03 17:26:53;;;;;;;20.47;13.50;;;;;;;7.07;95.90;101107.66;5071187;28;20213;-74
2022/02/03 17:29:29;;;;;;;19.23;13.37;;;;;;;7.09;96.78;101102.63;5071066;28;20185;-74
2022/02/03 17:54:30;;;;;;;17.33;13.50;;;;;;;7.01;95.84;101081.09;5070557;28;20631;-74
2022/02/03 18:05:38;;;;;;;17.60;13.03;;;;;;;6.95;96.29;101083.44;5070588;28;20208;-75
2022/02/03 18:08:07;;;;;;;19.97;14.53;;;;;;;6.90;96.57;101097.63;5070299;28;20680;-74
2022/02/03 18:10:46;;;;;;;19.43;14.13;;;;;;;6.88;96.74;101087.41;5070169;28;20646;-74
2022/02/03 18:29:49;;;;;;;20.30;13.93;;;;;;;6.94;97.10;101086.75;5069778;28;20196;-74
2022/02/03 18:32:39;;;;;;;21.20;14.30;;;;;;;6.94;96.48;101089.31;5070274;28;20238;-74
2022/02/03 18:51:17;;;;;;;22.57;15.17;;;;;;;6.97;96.73;101074.16;5069743;28;20245;-74
2022/02/03 18:53:57;;;;;;;18.87;14.47;;;;;;;6.97;96.83;101069.06;5068248;28;20173;-74
2022/02/03 19:01:50;;;;;;;21.00;15.43;;;;;;;6.97;96.30;101075.03;5069645;28;20981;-73
2022/02/03 19:10:25;;;;;;;21.57;15.50;;;;;;;6.98;95.40;101064.03;5069315;28;20209;-74
2022/02/03 19:15:36;;;;;;;21.40;16.33;;;;;;;6.96;95.57;101057.16;5068221;28;20203;-74
2022/02/03 19:21:16;;;;;;;25.37;16.73;;;;;;;6.91;95.91;101056.97;5069446;28;20219;-74
2022/02/03 19:24:07;;;;;;;21.43;15.30;;;;;;;6.89;95.84;101061.16;5069529;28;20239;-74
2022/02/03 20:02:39;;;;;;;28.83;19.57;;;;;;;6.84;96.67;101056.69;5069288;28;20209;-74
2022/02/03 20:06:57;;;;;;;28.57;19.00;;;;;;;6.84;96.66;101051.59;5069695;28;20935;-74
2022/02/03 20:09:40;;;;;;;29.27;18.63;;;;;;;6.82;96.50;101049.00;5072465;28;20192;-74
2022/02/03 20:12:05;;;;;;;28.80;19.70;;;;;;;6.83;96.17;101047.31;5071385;28;20307;-73
2022/02/03 20:14:31;;;;;;;28.63;19.87;;;;;;;6.82;96.68;101043.06;5054559;28;20279;-74
2022/02/03 20:16:56;;;;;;;32.53;20.57;;;;;;;6.82;97.30;101043.06;5072537;28;20296;-74
2022/02/03 20:19:21;;;;;;;30.40;21.13;;;;;;;6.82;96.67;101043.06;5070782;28;20232;-74
2022/02/03 20:21:47;;;;;;;27.87;19.00;;;;;;;6.82;97.21;101037.97;5072346;28;20185;-74
2022/02/03 20:24:13;;;;;;;31.13;20.60;;;;;;;6.82;97.00;101045.59;5072245;28;20192;-74
2022/02/03 20:26:41;;;;;;;31.10;20.07;;;;;;;6.79;96.95;101043.81;5070954;28;20267;-74
2022/02/03 20:29:06;;;;;;;29.67;20.17;;;;;;;6.81;96.75;101046.41;5070865;28;20224;-74
2022/02/03 20:31:32;;;;;;;28.63;19.60;;;;;;;6.81;96.59;101042.16;5072214;28;20258;-73
2022/02/03 20:33:57;;;;;;;28.80;19.77;;;;;;;6.80;96.83;101045.53;5070988;28;20184;-74
2022/02/03 20:36:23;;;;;;;32.37;19.87;;;;;;;6.82;96.69;101038.81;5072275;28;20177;-74
2022/02/03 20:38:51;;;;;;;28.30;20.83;;;;;;;6.81;96.84;101033.69;5070965;28;20185;-74
2022/02/03 20:41:17;;;;;;;32.30;20.73;;;;;;;6.81;95.94;101028.59;5072370;28;20666;-74
2022/02/03 20:43:42;;;;;;;30.00;18.60;;;;;;;6.80;96.45;101029.38;5071257;28;20674;-74
2022/02/03 20:46:07;;;;;;;31.67;21.07;;;;;;;6.81;96.43;101032.00;5070814;28;20215;-74
2022/02/03 20:48:33;;;;;;;29.80;21.13;;;;;;;6.82;96.36;101033.72;5071923;28;20189;-74
2022/02/03 20:50:58;;;;;;;31.17;19.83;;;;;;;6.80;96.28;101037.91;5071948;28;20204;-74
2022/02/03 20:53:24;;;;;;;29.40;21.10;;;;;;;6.81;96.25;101039.63;5071711;28;20557;-73
2022/02/03 20:55:50;;;;;;;31.90;20.57;;;;;;;6.80;96.20;101035.34;5071992;28;20174;-74
2022/02/03 20:58:18;;;;;;;30.27;21.50;;;;;;;6.79;96.96;101032.75;5070350;28;20218;-73
2022/02/03 21:00:58;;;;;;;32.40;21.77;;;;;;;6.79;97.35;101026.00;5071807;28;20262;-73
2022/02/03 21:03:30;;;;;;;31.10;21.60;;;;;;;6.77;96.52;101017.41;5071836;28;20176;-74
2022/02/03 21:05:55;;;;;;;36.27;21.37;;;;;;;6.75;97.24;101018.16;5070342;28;20220;-73
2022/02/03 21:08:29;;;;;;;34.07;22.23;;;;;;;6.74;97.38;101019.00;5071540;28;20196;-73
2022/02/03 21:10:54;;;;;;;33.10;21.33;;;;;;;6.71;97.57;101021.41;5070273;28;20278;-73
2022/02/03 21:13:20;;;;;;;34.40;22.97;;;;;;;6.69;97.92;101020.50;5071631;28;20185;-73
2022/02/03 21:15:46;;;;;;;34.67;23.57;;;;;;;6.70;97.71;101012.03;5071635;28;20181;-74
2022/02/03 21:18:13;;;;;;;35.97;23.47;;;;;;;6.66;98.16;101013.63;5071280;28;20193;-74
2022/02/03 21:20:39;;;;;;;35.87;23.13;;;;;;;6.66;97.92;101012.75;5071304;28;20209;-73